sensor_id;sensor_type;location;lat;lon;timestamp;P1;durP1;ratioP1;P2;durP2;ratioP2
62903;SDS011;49000;50.698;13.322;2023-02-26T00:02:07;1.30;;;0.90;;
62903;SDS011;49000;50.698;13.322;2023-02-26T00:04:34;1.23;;;0.80;;
62903;SDS011;49000;50.698;13.322;2023-02-26T00:07:00;1.90;;;0.80;;
62903;SDS011;49000;50.698;13.322;2023-02-26T00:09:27;1.53;;;0.90;;
62903;SDS011;49000;50.698;13.322;2023-02-26T00:11:52;1.03;;;0.70;;
62903;SDS011;49000;50.698;13.322;2023-02-26T00:14:18;0.73;;;0.70;;
62903;SDS011;49000;50.698;13.322;2023-02-26T00:16:46;2.20;;;0.67;;
62903;SDS011;49000;50.698;13.322;2023-02-26T00:19:15;1.00;;;0.90;;
62903;SDS011;49000;50.698;13.322;2023-02-26T00:21:40;0.60;;;0.60;;
62903;SDS011;49000;50.698;13.322;2023-02-26T00:24:06;1.50;;;0.90;;
62903;SDS011;49000;50.698;13.322;2023-02-26T00:26:32;1.67;;;0.90;;
62903;SDS011;49000;50.698;13.322;2023-02-26T00:28:58;1.13;;;0.70;;
62903;SDS011;49000;50.698;13.322;2023-02-26T00:31:25;1.47;;;0.77;;
62903;SDS011;49000;50.698;13.322;2023-02-26T00:33:51;2.40;;;0.90;;
62903;SDS011;49000;50.698;13.322;2023-02-26T00:39:07;0.90;;;0.60;;
62903;SDS011;49000;50.698;13.322;2023-02-26T00:41:43;1.93;;;0.87;;
62903;SDS011;49000;50.698;13.322;2023-02-26T00:44:09;1.00;;;0.77;;
62903;SDS011;49000;50.698;13.322;2023-02-26T00:46:37;2.40;;;0.70;;
62903;SDS011;49000;50.698;13.322;2023-02-26T00:52:28;1.40;;;0.77;;
62903;SDS011;49000;50.698;13.322;2023-02-26T00:54:57;1.30;;;0.70;;
62903;SDS011;49000;50.698;13.322;2023-02-26T00:57:22;2.00;;;0.80;;
62903;SDS011;49000;50.698;13.322;2023-02-26T00:59:48;2.67;;;0.90;;
62903;SDS011;49000;50.698;13.322;2023-02-26T01:02:13;1.10;;;0.83;;
62903;SDS011;49000;50.698;13.322;2023-02-26T01:04:39;1.50;;;0.80;;
62903;SDS011;49000;50.698;13.322;2023-02-26T01:07:05;0.73;;;0.70;;
62903;SDS011;49000;50.698;13.322;2023-02-26T01:09:34;1.27;;;0.70;;
62903;SDS011;49000;50.698;13.322;2023-02-26T01:12:03;1.50;;;0.80;;
62903;SDS011;49000;50.698;13.322;2023-02-26T01:14:31;1.53;;;0.80;;
62903;SDS011;49000;50.698;13.322;2023-02-26T01:22:15;1.37;;;0.67;;
62903;SDS011;49000;50.698;13.322;2023-02-26T01:24:46;1.23;;;0.60;;
62903;SDS011;49000;50.698;13.322;2023-02-26T01:27:13;0.80;;;0.70;;
62903;SDS011;49000;50.698;13.322;2023-02-26T01:29:39;1.03;;;0.63;;
62903;SDS011;49000;50.698;13.322;2023-02-26T01:32:11;1.27;;;0.60;;
62903;SDS011;49000;50.698;13.322;2023-02-26T01:34:51;1.10;;;0.57;;
62903;SDS011;49000;50.698;13.322;2023-02-26T01:37:27;0.87;;;0.70;;
62903;SDS011;49000;50.698;13.322;2023-02-26T01:40:34;1.17;;;0.73;;
62903;SDS011;49000;50.698;13.322;2023-02-26T01:43:18;1.80;;;0.70;;
62903;SDS011;49000;50.698;13.322;2023-02-26T01:48:17;1.93;;;0.63;;
62903;SDS011;49000;50.698;13.322;2023-02-26T01:50:55;0.80;;;0.70;;
62903;SDS011;49000;50.698;13.322;2023-02-26T01:53:22;0.87;;;0.60;;
62903;SDS011;49000;50.698;13.322;2023-02-26T01:55:56;0.80;;;0.70;;
62903;SDS011;49000;50.698;13.322;2023-02-26T01:58:25;1.30;;;0.80;;
62903;SDS011;49000;50.698;13.322;2023-02-26T02:00:53;1.57;;;0.67;;
62903;SDS011;49000;50.698;13.322;2023-02-26T02:03:19;0.70;;;0.50;;
62903;SDS011;49000;50.698;13.322;2023-02-26T02:05:46;0.90;;;0.60;;
62903;SDS011;49000;50.698;13.322;2023-02-26T02:08:19;1.17;;;0.50;;
62903;SDS011;49000;50.698;13.322;2023-02-26T02:10:46;0.80;;;0.67;;
62903;SDS011;49000;50.698;13.322;2023-02-26T02:13:24;1.00;;;0.57;;
62903;SDS011;49000;50.698;13.322;2023-02-26T02:18:35;0.80;;;0.60;;
62903;SDS011;49000;50.698;13.322;2023-02-26T02:26:39;1.53;;;0.67;;
62903;SDS011;49000;50.698;13.322;2023-02-26T02:32:27;1.80;;;0.67;;
62903;SDS011;49000;50.698;13.322;2023-02-26T02:35:11;1.00;;;0.53;;
62903;SDS011;49000;50.698;13.322;2023-02-26T02:38:04;1.10;;;0.63;;
62903;SDS011;49000;50.698;13.322;2023-02-26T02:40:46;0.70;;;0.50;;
62903;SDS011;49000;50.698;13.322;2023-02-26T02:43:18;1.40;;;0.70;;
62903;SDS011;49000;50.698;13.322;2023-02-26T02:45:48;0.87;;;0.70;;
62903;SDS011;49000;50.698;13.322;2023-02-26T02:48:38;0.40;;;0.40;;
62903;SDS011;49000;50.698;13.322;2023-02-26T02:51:10;0.53;;;0.47;;
62903;SDS011;49000;50.698;13.322;2023-02-26T02:59:10;0.83;;;0.50;;
62903;SDS011;49000;50.698;13.322;2023-02-26T03:01:44;1.67;;;0.60;;
62903;SDS011;49000;50.698;13.322;2023-02-26T03:04:14;3.40;;;0.60;;
62903;SDS011;49000;50.698;13.322;2023-02-26T03:06:41;2.77;;;0.50;;
62903;SDS011;49000;50.698;13.322;2023-02-26T03:09:08;2.90;;;0.70;;
62903;SDS011;49000;50.698;13.322;2023-02-26T03:11:34;0.73;;;0.67;;
62903;SDS011;49000;50.698;13.322;2023-02-26T03:14:00;1.20;;;0.90;;
62903;SDS011;49000;50.698;13.322;2023-02-26T03:22:48;1.27;;;0.77;;
62903;SDS011;49000;50.698;13.322;2023-02-26T03:27:43;1.50;;;0.70;;
62903;SDS011;49000;50.698;13.322;2023-02-26T03:35:52;1.57;;;0.93;;
62903;SDS011;49000;50.698;13.322;2023-02-26T03:38:36;1.10;;;0.87;;
62903;SDS011;49000;50.698;13.322;2023-02-26T03:41:08;1.40;;;1.10;;
62903;SDS011;49000;50.698;13.322;2023-02-26T03:43:46;1.00;;;0.93;;
62903;SDS011;49000;50.698;13.322;2023-02-26T03:46:20;1.17;;;1.07;;
62903;SDS011;49000;50.698;13.322;2023-02-26T03:48:50;1.90;;;1.47;;
62903;SDS011;49000;50.698;13.322;2023-02-26T03:51:19;1.50;;;1.40;;
62903;SDS011;49000;50.698;13.322;2023-02-26T03:53:51;2.60;;;1.90;;
62903;SDS011;49000;50.698;13.322;2023-02-26T03:56:23;1.80;;;1.67;;
62903;SDS011;49000;50.698;13.322;2023-02-26T03:58:53;1.80;;;1.47;;
62903;SDS011;49000;50.698;13.322;2023-02-26T04:01:22;1.93;;;1.50;;
62903;SDS011;49000;50.698;13.322;2023-02-26T04:03:53;2.63;;;1.60;;
62903;SDS011;49000;50.698;13.322;2023-02-26T04:06:22;1.60;;;1.50;;
62903;SDS011;49000;50.698;13.322;2023-02-26T04:08:49;1.43;;;1.30;;
62903;SDS011;49000;50.698;13.322;2023-02-26T04:11:15;1.30;;;1.20;;
62903;SDS011;49000;50.698;13.322;2023-02-26T04:13:43;1.70;;;1.60;;
62903;SDS011;49000;50.698;13.322;2023-02-26T04:16:09;1.63;;;1.20;;
62903;SDS011;49000;50.698;13.322;2023-02-26T04:18:35;1.70;;;1.47;;
62903;SDS011;49000;50.698;13.322;2023-02-26T04:21:01;2.23;;;1.43;;
62903;SDS011;49000;50.698;13.322;2023-02-26T04:23:27;1.60;;;1.30;;
62903;SDS011;49000;50.698;13.322;2023-02-26T04:25:53;2.07;;;1.50;;
62903;SDS011;49000;50.698;13.322;2023-02-26T04:28:18;1.87;;;1.50;;
62903;SDS011;49000;50.698;13.322;2023-02-26T04:30:43;2.13;;;1.50;;
62903;SDS011;49000;50.698;13.322;2023-02-26T04:33:09;1.83;;;1.43;;
62903;SDS011;49000;50.698;13.322;2023-02-26T04:35:34;1.80;;;1.30;;
62903;SDS011;49000;50.698;13.322;2023-02-26T04:38:00;1.47;;;1.20;;
62903;SDS011;49000;50.698;13.322;2023-02-26T04:40:25;1.90;;;1.30;;
62903;SDS011;49000;50.698;13.322;2023-02-26T04:42:51;1.70;;;1.30;;
62903;SDS011;49000;50.698;13.322;2023-02-26T04:45:17;2.23;;;1.50;;
62903;SDS011;49000;50.698;13.322;2023-02-26T04:47:42;2.40;;;1.60;;
62903;SDS011;49000;50.698;13.322;2023-02-26T04:50:08;1.37;;;1.27;;
62903;SDS011;49000;50.698;13.322;2023-02-26T04:52:34;1.77;;;1.20;;
62903;SDS011;49000;50.698;13.322;2023-02-26T04:54:59;2.10;;;1.90;;
62903;SDS011;49000;50.698;13.322;2023-02-26T04:57:25;1.80;;;1.60;;
62903;SDS011;49000;50.698;13.322;2023-02-26T04:59:51;1.80;;;1.53;;
62903;SDS011;49000;50.698;13.322;2023-02-26T05:02:16;1.70;;;1.27;;
62903;SDS011;49000;50.698;13.322;2023-02-26T05:04:41;3.40;;;1.60;;
62903;SDS011;49000;50.698;13.322;2023-02-26T05:07:07;1.70;;;1.30;;
62903;SDS011;49000;50.698;13.322;2023-02-26T05:09:32;1.63;;;1.30;;
62903;SDS011;49000;50.698;13.322;2023-02-26T05:11:58;1.50;;;1.30;;
62903;SDS011;49000;50.698;13.322;2023-02-26T05:14:23;1.70;;;1.50;;
62903;SDS011;49000;50.698;13.322;2023-02-26T05:16:49;1.70;;;1.30;;
62903;SDS011;49000;50.698;13.322;2023-02-26T05:19:14;1.77;;;1.30;;
62903;SDS011;49000;50.698;13.322;2023-02-26T05:21:40;1.77;;;1.30;;
62903;SDS011;49000;50.698;13.322;2023-02-26T05:24:05;1.73;;;1.30;;
62903;SDS011;49000;50.698;13.322;2023-02-26T05:26:31;2.00;;;1.40;;
62903;SDS011;49000;50.698;13.322;2023-02-26T05:28:57;2.90;;;1.30;;
62903;SDS011;49000;50.698;13.322;2023-02-26T05:31:22;1.90;;;1.60;;
62903;SDS011;49000;50.698;13.322;2023-02-26T05:33:48;2.63;;;1.70;;
62903;SDS011;49000;50.698;13.322;2023-02-26T05:36:13;2.43;;;1.70;;
62903;SDS011;49000;50.698;13.322;2023-02-26T05:38:39;2.73;;;1.50;;
62903;SDS011;49000;50.698;13.322;2023-02-26T05:41:04;2.13;;;1.60;;
62903;SDS011;49000;50.698;13.322;2023-02-26T05:43:30;2.37;;;1.60;;
62903;SDS011;49000;50.698;13.322;2023-02-26T05:45:57;2.00;;;1.50;;
62903;SDS011;49000;50.698;13.322;2023-02-26T05:48:23;2.20;;;1.70;;
62903;SDS011;49000;50.698;13.322;2023-02-26T05:50:48;3.03;;;1.70;;
62903;SDS011;49000;50.698;13.322;2023-02-26T05:53:15;1.83;;;1.50;;
62903;SDS011;49000;50.698;13.322;2023-02-26T05:55:40;4.20;;;1.93;;
62903;SDS011;49000;50.698;13.322;2023-02-26T05:58:06;2.83;;;2.10;;
62903;SDS011;49000;50.698;13.322;2023-02-26T06:00:31;2.67;;;1.50;;
62903;SDS011;49000;50.698;13.322;2023-02-26T06:02:57;3.07;;;1.77;;
62903;SDS011;49000;50.698;13.322;2023-02-26T06:05:22;2.40;;;1.53;;
62903;SDS011;49000;50.698;13.322;2023-02-26T06:07:48;3.13;;;1.37;;
62903;SDS011;49000;50.698;13.322;2023-02-26T06:10:13;2.57;;;1.30;;
62903;SDS011;49000;50.698;13.322;2023-02-26T06:12:39;3.50;;;1.57;;
62903;SDS011;49000;50.698;13.322;2023-02-26T06:15:05;3.07;;;1.43;;
62903;SDS011;49000;50.698;13.322;2023-02-26T06:17:31;3.93;;;1.67;;
62903;SDS011;49000;50.698;13.322;2023-02-26T06:19:57;4.23;;;1.50;;
62903;SDS011;49000;50.698;13.322;2023-02-26T06:22:23;2.27;;;1.53;;
62903;SDS011;49000;50.698;13.322;2023-02-26T06:24:48;1.60;;;1.20;;
62903;SDS011;49000;50.698;13.322;2023-02-26T06:27:14;1.50;;;1.17;;
62903;SDS011;49000;50.698;13.322;2023-02-26T06:29:39;2.47;;;1.93;;
62903;SDS011;49000;50.698;13.322;2023-02-26T06:32:05;2.70;;;1.80;;
62903;SDS011;49000;50.698;13.322;2023-02-26T06:34:31;4.80;;;2.37;;
62903;SDS011;49000;50.698;13.322;2023-02-26T06:36:57;2.80;;;2.03;;
62903;SDS011;49000;50.698;13.322;2023-02-26T06:39:23;3.83;;;2.30;;
62903;SDS011;49000;50.698;13.322;2023-02-26T06:41:48;4.57;;;2.10;;
62903;SDS011;49000;50.698;13.322;2023-02-26T06:44:14;2.47;;;2.10;;
62903;SDS011;49000;50.698;13.322;2023-02-26T06:46:39;3.50;;;2.50;;
62903;SDS011;49000;50.698;13.322;2023-02-26T06:49:05;4.57;;;2.47;;
62903;SDS011;49000;50.698;13.322;2023-02-26T06:51:31;4.77;;;2.53;;
62903;SDS011;49000;50.698;13.322;2023-02-26T06:53:56;3.30;;;2.27;;
62903;SDS011;49000;50.698;13.322;2023-02-26T06:56:22;5.17;;;2.70;;
62903;SDS011;49000;50.698;13.322;2023-02-26T06:58:48;4.90;;;2.63;;
62903;SDS011;49000;50.698;13.322;2023-02-26T07:01:14;4.80;;;2.40;;
62903;SDS011;49000;50.698;13.322;2023-02-26T07:03:39;5.03;;;2.37;;
62903;SDS011;49000;50.698;13.322;2023-02-26T07:06:05;4.30;;;2.33;;
62903;SDS011;49000;50.698;13.322;2023-02-26T07:08:32;3.93;;;2.13;;
62903;SDS011;49000;50.698;13.322;2023-02-26T07:10:58;3.53;;;2.07;;
62903;SDS011;49000;50.698;13.322;2023-02-26T07:13:24;2.37;;;1.63;;
62903;SDS011;49000;50.698;13.322;2023-02-26T07:15:49;2.67;;;2.00;;
62903;SDS011;49000;50.698;13.322;2023-02-26T07:18:14;4.13;;;1.93;;
62903;SDS011;49000;50.698;13.322;2023-02-26T07:20:40;3.30;;;2.37;;
62903;SDS011;49000;50.698;13.322;2023-02-26T07:23:06;2.43;;;2.03;;
62903;SDS011;49000;50.698;13.322;2023-02-26T07:25:32;4.37;;;1.90;;
62903;SDS011;49000;50.698;13.322;2023-02-26T07:27:58;3.03;;;2.07;;
62903;SDS011;49000;50.698;13.322;2023-02-26T07:30:24;3.63;;;2.10;;
62903;SDS011;49000;50.698;13.322;2023-02-26T07:32:49;3.17;;;1.63;;
62903;SDS011;49000;50.698;13.322;2023-02-26T07:35:15;3.30;;;1.90;;
62903;SDS011;49000;50.698;13.322;2023-02-26T07:37:40;6.37;;;1.70;;
62903;SDS011;49000;50.698;13.322;2023-02-26T07:40:06;2.77;;;1.70;;
62903;SDS011;49000;50.698;13.322;2023-02-26T07:42:32;4.10;;;2.13;;
62903;SDS011;49000;50.698;13.322;2023-02-26T07:44:58;3.93;;;1.50;;
62903;SDS011;49000;50.698;13.322;2023-02-26T07:47:23;4.70;;;1.97;;
62903;SDS011;49000;50.698;13.322;2023-02-26T07:49:49;2.63;;;1.60;;
62903;SDS011;49000;50.698;13.322;2023-02-26T07:52:14;3.67;;;1.67;;
62903;SDS011;49000;50.698;13.322;2023-02-26T07:54:40;2.17;;;1.43;;
62903;SDS011;49000;50.698;13.322;2023-02-26T07:57:06;2.67;;;1.53;;
62903;SDS011;49000;50.698;13.322;2023-02-26T07:59:31;3.13;;;1.50;;
62903;SDS011;49000;50.698;13.322;2023-02-26T08:01:57;2.47;;;1.73;;
62903;SDS011;49000;50.698;13.322;2023-02-26T08:04:22;1.90;;;1.33;;
62903;SDS011;49000;50.698;13.322;2023-02-26T08:06:48;4.93;;;1.53;;
62903;SDS011;49000;50.698;13.322;2023-02-26T08:09:14;2.30;;;1.60;;
62903;SDS011;49000;50.698;13.322;2023-02-26T08:11:39;1.67;;;1.30;;
62903;SDS011;49000;50.698;13.322;2023-02-26T08:14:07;1.83;;;1.60;;
62903;SDS011;49000;50.698;13.322;2023-02-26T08:16:33;4.07;;;1.67;;
62903;SDS011;49000;50.698;13.322;2023-02-26T08:18:58;1.40;;;1.23;;
62903;SDS011;49000;50.698;13.322;2023-02-26T08:21:24;3.43;;;1.37;;
62903;SDS011;49000;50.698;13.322;2023-02-26T08:23:50;1.80;;;1.50;;
62903;SDS011;49000;50.698;13.322;2023-02-26T08:26:16;2.70;;;1.70;;
62903;SDS011;49000;50.698;13.322;2023-02-26T08:28:42;4.90;;;1.50;;
62903;SDS011;49000;50.698;13.322;2023-02-26T08:31:07;4.07;;;1.80;;
62903;SDS011;49000;50.698;13.322;2023-02-26T08:33:33;3.43;;;1.43;;
62903;SDS011;49000;50.698;13.322;2023-02-26T08:35:58;2.63;;;1.20;;
62903;SDS011;49000;50.698;13.322;2023-02-26T08:38:26;2.70;;;1.30;;
62903;SDS011;49000;50.698;13.322;2023-02-26T08:40:52;2.77;;;1.23;;
62903;SDS011;49000;50.698;13.322;2023-02-26T08:43:18;2.70;;;1.30;;
62903;SDS011;49000;50.698;13.322;2023-02-26T08:45:44;2.37;;;1.20;;
62903;SDS011;49000;50.698;13.322;2023-02-26T08:48:10;2.73;;;1.20;;
62903;SDS011;49000;50.698;13.322;2023-02-26T08:50:36;2.37;;;1.80;;
62903;SDS011;49000;50.698;13.322;2023-02-26T08:53:02;2.47;;;1.37;;
62903;SDS011;49000;50.698;13.322;2023-02-26T08:55:28;2.07;;;1.40;;
62903;SDS011;49000;50.698;13.322;2023-02-26T08:57:53;3.47;;;1.40;;
62903;SDS011;49000;50.698;13.322;2023-02-26T09:00:19;1.70;;;1.27;;
62903;SDS011;49000;50.698;13.322;2023-02-26T09:02:45;2.87;;;1.33;;
62903;SDS011;49000;50.698;13.322;2023-02-26T09:05:10;3.07;;;1.20;;
62903;SDS011;49000;50.698;13.322;2023-02-26T09:07:36;2.27;;;1.30;;
62903;SDS011;49000;50.698;13.322;2023-02-26T09:10:02;2.63;;;1.20;;
62903;SDS011;49000;50.698;13.322;2023-02-26T09:12:29;2.40;;;1.13;;
62903;SDS011;49000;50.698;13.322;2023-02-26T09:14:54;3.13;;;1.40;;
62903;SDS011;49000;50.698;13.322;2023-02-26T09:17:23;3.40;;;1.47;;
62903;SDS011;49000;50.698;13.322;2023-02-26T09:19:49;3.60;;;1.40;;
62903;SDS011;49000;50.698;13.322;2023-02-26T09:22:14;2.40;;;1.30;;
62903;SDS011;49000;50.698;13.322;2023-02-26T09:24:40;2.00;;;1.20;;
62903;SDS011;49000;50.698;13.322;2023-02-26T09:27:05;3.63;;;1.40;;
62903;SDS011;49000;50.698;13.322;2023-02-26T09:29:31;2.27;;;1.30;;
62903;SDS011;49000;50.698;13.322;2023-02-26T09:31:56;3.13;;;1.30;;
62903;SDS011;49000;50.698;13.322;2023-02-26T09:34:22;3.67;;;1.00;;
62903;SDS011;49000;50.698;13.322;2023-02-26T09:36:48;1.23;;;0.87;;
62903;SDS011;49000;50.698;13.322;2023-02-26T09:39:13;2.80;;;1.07;;
62903;SDS011;49000;50.698;13.322;2023-02-26T09:41:40;1.97;;;0.80;;
62903;SDS011;49000;50.698;13.322;2023-02-26T09:44:23;1.57;;;0.90;;
62903;SDS011;49000;50.698;13.322;2023-02-26T09:47:11;3.87;;;1.10;;
62903;SDS011;49000;50.698;13.322;2023-02-26T09:49:49;2.00;;;1.17;;
62903;SDS011;49000;50.698;13.322;2023-02-26T09:52:29;1.37;;;1.00;;
62903;SDS011;49000;50.698;13.322;2023-02-26T09:55:42;2.63;;;1.00;;
62903;SDS011;49000;50.698;13.322;2023-02-26T09:58:01;1.30;;;0.77;;
62903;SDS011;49000;50.698;13.322;2023-02-26T10:00:34;3.23;;;0.90;;
62903;SDS011;49000;50.698;13.322;2023-02-26T10:03:19;2.80;;;1.07;;
62903;SDS011;49000;50.698;13.322;2023-02-26T10:06:14;1.53;;;1.10;;
62903;SDS011;49000;50.698;13.322;2023-02-26T10:09:04;3.37;;;1.17;;
62903;SDS011;49000;50.698;13.322;2023-02-26T10:17:41;3.97;;;0.90;;
62903;SDS011;49000;50.698;13.322;2023-02-26T10:20:25;3.10;;;1.00;;
62903;SDS011;49000;50.698;13.322;2023-02-26T10:23:01;2.50;;;1.10;;
62903;SDS011;49000;50.698;13.322;2023-02-26T10:25:41;2.27;;;0.83;;
62903;SDS011;49000;50.698;13.322;2023-02-26T10:30:58;1.67;;;0.87;;
62903;SDS011;49000;50.698;13.322;2023-02-26T10:33:32;1.97;;;0.80;;
62903;SDS011;49000;50.698;13.322;2023-02-26T10:36:27;3.23;;;1.10;;
62903;SDS011;49000;50.698;13.322;2023-02-26T10:38:57;2.40;;;0.80;;
62903;SDS011;49000;50.698;13.322;2023-02-26T10:41:35;1.50;;;1.00;;
62903;SDS011;49000;50.698;13.322;2023-02-26T10:47:22;3.17;;;1.00;;
62903;SDS011;49000;50.698;13.322;2023-02-26T10:50:09;3.97;;;1.10;;
62903;SDS011;49000;50.698;13.322;2023-02-26T10:52:38;3.63;;;1.27;;
62903;SDS011;49000;50.698;13.322;2023-02-26T10:55:15;2.00;;;0.87;;
62903;SDS011;49000;50.698;13.322;2023-02-26T11:00:38;2.30;;;1.00;;
62903;SDS011;49000;50.698;13.322;2023-02-26T11:03:10;2.40;;;1.10;;
62903;SDS011;49000;50.698;13.322;2023-02-26T11:05:41;2.93;;;1.33;;
62903;SDS011;49000;50.698;13.322;2023-02-26T11:08:23;2.50;;;1.00;;
62903;SDS011;49000;50.698;13.322;2023-02-26T11:10:56;3.33;;;1.13;;
62903;SDS011;49000;50.698;13.322;2023-02-26T11:13:27;2.63;;;1.00;;
62903;SDS011;49000;50.698;13.322;2023-02-26T11:15:54;3.23;;;1.23;;
62903;SDS011;49000;50.698;13.322;2023-02-26T11:18:26;3.17;;;1.00;;
62903;SDS011;49000;50.698;13.322;2023-02-26T11:21:12;1.47;;;0.90;;
62903;SDS011;49000;50.698;13.322;2023-02-26T11:23:45;3.20;;;0.90;;
62903;SDS011;49000;50.698;13.322;2023-02-26T11:26:18;2.00;;;1.00;;
62903;SDS011;49000;50.698;13.322;2023-02-26T11:28:49;1.27;;;0.63;;
62903;SDS011;49000;50.698;13.322;2023-02-26T11:31:19;2.17;;;1.00;;
62903;SDS011;49000;50.698;13.322;2023-02-26T11:33:51;3.67;;;1.10;;
62903;SDS011;49000;50.698;13.322;2023-02-26T11:36:24;2.40;;;0.90;;
62903;SDS011;49000;50.698;13.322;2023-02-26T11:38:54;1.60;;;0.83;;
62903;SDS011;49000;50.698;13.322;2023-02-26T11:41:29;1.53;;;0.83;;
62903;SDS011;49000;50.698;13.322;2023-02-26T11:44:12;2.20;;;0.80;;
62903;SDS011;49000;50.698;13.322;2023-02-26T11:46:44;1.70;;;1.07;;
62903;SDS011;49000;50.698;13.322;2023-02-26T11:49:15;3.47;;;1.03;;
62903;SDS011;49000;50.698;13.322;2023-02-26T11:51:46;1.73;;;0.73;;
62903;SDS011;49000;50.698;13.322;2023-02-26T11:54:23;3.37;;;1.30;;
62903;SDS011;49000;50.698;13.322;2023-02-26T11:56:52;1.43;;;0.63;;
62903;SDS011;49000;50.698;13.322;2023-02-26T11:59:30;1.80;;;0.80;;
62903;SDS011;49000;50.698;13.322;2023-02-26T12:02:00;1.77;;;0.90;;
62903;SDS011;49000;50.698;13.322;2023-02-26T12:04:35;1.97;;;0.80;;
62903;SDS011;49000;50.698;13.322;2023-02-26T12:07:13;3.40;;;1.40;;
62903;SDS011;49000;50.698;13.322;2023-02-26T12:09:41;2.70;;;0.90;;
62903;SDS011;49000;50.698;13.322;2023-02-26T12:12:10;1.80;;;0.90;;
62903;SDS011;49000;50.698;13.322;2023-02-26T12:26:28;1.97;;;1.00;;
62903;SDS011;49000;50.698;13.322;2023-02-26T12:29:10;3.67;;;1.23;;
62903;SDS011;49000;50.698;13.322;2023-02-26T12:31:55;3.83;;;1.10;;
62903;SDS011;49000;50.698;13.322;2023-02-26T12:34:49;3.97;;;1.00;;
62903;SDS011;49000;50.698;13.322;2023-02-26T12:46:05;2.70;;;1.00;;
62903;SDS011;49000;50.698;13.322;2023-02-26T12:54:31;2.43;;;0.97;;
62903;SDS011;49000;50.698;13.322;2023-02-26T12:57:07;2.87;;;0.90;;
62903;SDS011;49000;50.698;13.322;2023-02-26T12:59:56;2.57;;;1.00;;
62903;SDS011;49000;50.698;13.322;2023-02-26T13:08:09;1.90;;;0.80;;
62903;SDS011;49000;50.698;13.322;2023-02-26T13:10:50;1.93;;;1.20;;
62903;SDS011;49000;50.698;13.322;2023-02-26T13:16:08;1.87;;;1.00;;
62903;SDS011;49000;50.698;13.322;2023-02-26T13:18:58;1.73;;;0.70;;
62903;SDS011;49000;50.698;13.322;2023-02-26T13:21:50;3.00;;;1.20;;
62903;SDS011;49000;50.698;13.322;2023-02-26T13:24:24;2.53;;;1.10;;
62903;SDS011;49000;50.698;13.322;2023-02-26T13:26:58;3.90;;;1.27;;
62903;SDS011;49000;50.698;13.322;2023-02-26T13:29:27;3.53;;;0.83;;
62903;SDS011;49000;50.698;13.322;2023-02-26T13:32:01;2.07;;;0.87;;
62903;SDS011;49000;50.698;13.322;2023-02-26T13:34:35;1.73;;;0.87;;
62903;SDS011;49000;50.698;13.322;2023-02-26T13:37:21;2.83;;;0.90;;
62903;SDS011;49000;50.698;13.322;2023-02-26T13:39:58;1.63;;;0.80;;
62903;SDS011;49000;50.698;13.322;2023-02-26T13:42:37;2.00;;;0.77;;
62903;SDS011;49000;50.698;13.322;2023-02-26T13:50:55;5.57;;;1.47;;
62903;SDS011;49000;50.698;13.322;2023-02-26T13:56:20;1.33;;;0.70;;
62903;SDS011;49000;50.698;13.322;2023-02-26T14:01:59;2.50;;;1.00;;
62903;SDS011;49000;50.698;13.322;2023-02-26T14:04:28;2.10;;;0.90;;
62903;SDS011;49000;50.698;13.322;2023-02-26T14:14:45;2.20;;;1.10;;
62903;SDS011;49000;50.698;13.322;2023-02-26T14:20:23;1.53;;;0.80;;
62903;SDS011;49000;50.698;13.322;2023-02-26T14:22:52;2.40;;;1.30;;
62903;SDS011;49000;50.698;13.322;2023-02-26T14:25:40;4.27;;;1.50;;
62903;SDS011;49000;50.698;13.322;2023-02-26T14:28:18;3.47;;;1.33;;
62903;SDS011;49000;50.698;13.322;2023-02-26T14:31:05;6.40;;;1.30;;
62903;SDS011;49000;50.698;13.322;2023-02-26T14:33:45;2.83;;;1.23;;
62903;SDS011;49000;50.698;13.322;2023-02-26T14:36:41;4.33;;;1.60;;
62903;SDS011;49000;50.698;13.322;2023-02-26T14:39:16;2.37;;;0.73;;
62903;SDS011;49000;50.698;13.322;2023-02-26T14:41:58;3.23;;;0.80;;
62903;SDS011;49000;50.698;13.322;2023-02-26T14:44:30;1.80;;;0.80;;
62903;SDS011;49000;50.698;13.322;2023-02-26T14:47:00;3.47;;;0.70;;
62903;SDS011;49000;50.698;13.322;2023-02-26T14:49:31;1.33;;;0.60;;
62903;SDS011;49000;50.698;13.322;2023-02-26T14:54:54;2.10;;;0.80;;
62903;SDS011;49000;50.698;13.322;2023-02-26T14:57:45;1.83;;;0.70;;
62903;SDS011;49000;50.698;13.322;2023-02-26T15:11:21;3.07;;;0.90;;
62903;SDS011;49000;50.698;13.322;2023-02-26T15:14:08;1.83;;;0.80;;
62903;SDS011;49000;50.698;13.322;2023-02-26T15:19:59;3.07;;;0.70;;
62903;SDS011;49000;50.698;13.322;2023-02-26T15:22:56;3.03;;;0.90;;
62903;SDS011;49000;50.698;13.322;2023-02-26T15:25:31;2.30;;;0.80;;
62903;SDS011;49000;50.698;13.322;2023-02-26T15:28:00;1.30;;;0.63;;
62903;SDS011;49000;50.698;13.322;2023-02-26T15:30:28;2.30;;;0.70;;
62903;SDS011;49000;50.698;13.322;2023-02-26T15:32:56;1.83;;;0.97;;
62903;SDS011;49000;50.698;13.322;2023-02-26T15:35:23;2.20;;;0.87;;
62903;SDS011;49000;50.698;13.322;2023-02-26T15:37:52;3.23;;;0.90;;
62903;SDS011;49000;50.698;13.322;2023-02-26T15:40:21;1.10;;;0.70;;
62903;SDS011;49000;50.698;13.322;2023-02-26T15:42:48;1.57;;;0.70;;
62903;SDS011;49000;50.698;13.322;2023-02-26T15:45:22;3.47;;;1.10;;
62903;SDS011;49000;50.698;13.322;2023-02-26T15:47:56;1.60;;;1.10;;
62903;SDS011;49000;50.698;13.322;2023-02-26T15:50:29;1.10;;;0.90;;
62903;SDS011;49000;50.698;13.322;2023-02-26T15:52:58;2.47;;;1.00;;
62903;SDS011;49000;50.698;13.322;2023-02-26T15:55:28;2.03;;;0.97;;
62903;SDS011;49000;50.698;13.322;2023-02-26T15:57:59;3.17;;;1.10;;
62903;SDS011;49000;50.698;13.322;2023-02-26T16:00:25;3.10;;;1.10;;
62903;SDS011;49000;50.698;13.322;2023-02-26T16:02:54;3.30;;;1.20;;
62903;SDS011;49000;50.698;13.322;2023-02-26T16:05:23;2.97;;;1.10;;
62903;SDS011;49000;50.698;13.322;2023-02-26T16:07:50;1.60;;;1.00;;
62903;SDS011;49000;50.698;13.322;2023-02-26T16:10:38;1.90;;;1.10;;
62903;SDS011;49000;50.698;13.322;2023-02-26T16:13:06;3.33;;;1.10;;
62903;SDS011;49000;50.698;13.322;2023-02-26T16:15:38;4.00;;;1.20;;
62903;SDS011;49000;50.698;13.322;2023-02-26T16:18:05;2.53;;;1.30;;
62903;SDS011;49000;50.698;13.322;2023-02-26T16:20:38;1.97;;;1.00;;
62903;SDS011;49000;50.698;13.322;2023-02-26T16:23:16;2.50;;;1.33;;
62903;SDS011;49000;50.698;13.322;2023-02-26T16:28:15;2.33;;;1.10;;
62903;SDS011;49000;50.698;13.322;2023-02-26T16:30:48;2.50;;;1.50;;
62903;SDS011;49000;50.698;13.322;2023-02-26T16:33:18;4.37;;;2.70;;
62903;SDS011;49000;50.698;13.322;2023-02-26T16:35:47;4.90;;;2.30;;
62903;SDS011;49000;50.698;13.322;2023-02-26T16:38:19;2.00;;;1.30;;
62903;SDS011;49000;50.698;13.322;2023-02-26T16:40:54;1.87;;;1.07;;
62903;SDS011;49000;50.698;13.322;2023-02-26T16:43:29;2.27;;;1.40;;
62903;SDS011;49000;50.698;13.322;2023-02-26T16:45:58;2.57;;;1.30;;
62903;SDS011;49000;50.698;13.322;2023-02-26T16:48:30;4.97;;;1.23;;
62903;SDS011;49000;50.698;13.322;2023-02-26T16:51:23;3.17;;;1.00;;
62903;SDS011;49000;50.698;13.322;2023-02-26T16:53:59;3.50;;;1.50;;
62903;SDS011;49000;50.698;13.322;2023-02-26T16:56:30;3.77;;;1.40;;
62903;SDS011;49000;50.698;13.322;2023-02-26T16:59:12;3.13;;;1.30;;
62903;SDS011;49000;50.698;13.322;2023-02-26T17:01:47;3.20;;;1.20;;
62903;SDS011;49000;50.698;13.322;2023-02-26T17:04:24;3.50;;;1.70;;
62903;SDS011;49000;50.698;13.322;2023-02-26T17:06:52;2.03;;;1.07;;
62903;SDS011;49000;50.698;13.322;2023-02-26T17:09:23;4.63;;;1.00;;
62903;SDS011;49000;50.698;13.322;2023-02-26T17:12:02;3.90;;;1.10;;